Time;durP1;ratioP1;P1;durP2;ratioP2;P2;SDS_P1;SDS_P2;PMS_P1;PMS_P2;Temp;Humidity;BMP_temperature;BMP_pressure;BME280_temperature;BME280_humidity;BME280_pressure;Samples;Min_cycle;Max_cycle;Signal;HPM_P1;HPM_P2
2021/12/29 00:00:17;;;;;;;23.17;10.73;;;5.80;98.50;;;;;;5081108;28;20192;-75
2021/12/29 00:02:44;;;;;;;27.67;10.40;;;5.80;98.50;;;;;;5083807;28;20206;-75
2021/12/29 00:05:11;;;;;;;22.37;11.27;;;5.80;98.50;;;;;;5083089;28;20566;-75
2021/12/29 00:07:36;;;;;;;22.97;10.90;;;5.80;98.50;;;;;;5080174;28;20878;-74
2021/12/29 00:10:04;;;;;;;28.63;11.83;;;5.80;98.50;;;;;;5083128;28;20182;-75
2021/12/29 00:12:34;;;;;;;23.17;10.70;;;5.70;98.50;;;;;;5083504;28;20178;-74
2021/12/29 00:15:00;;;;;;;21.10;9.93;;;5.70;98.50;;;;;;5065202;28;20194;-75
2021/12/29 00:17:25;;;;;;;28.17;12.30;;;5.70;98.50;;;;;;5061420;28;20863;-73
2021/12/29 00:19:51;;;;;;;19.97;10.73;;;5.70;98.50;;;;;;5086075;28;20747;-72
2021/12/29 00:22:17;;;;;;;22.43;11.37;;;5.80;98.50;;;;;;5085333;28;20227;-73
2021/12/29 00:24:45;;;;;;;23.17;11.27;;;5.70;98.50;;;;;;5084884;28;20182;-73
2021/12/29 00:27:11;;;;;;;24.07;11.00;;;5.60;98.50;;;;;;5082899;28;20209;-72
2021/12/29 00:29:36;;;;;;;27.17;11.23;;;5.50;98.50;;;;;;5083604;28;20185;-73
2021/12/29 00:32:02;;;;;;;23.80;10.37;;;5.40;98.50;;;;;;5085546;28;20178;-75
2021/12/29 00:34:28;;;;;;;23.03;10.13;;;5.30;98.50;;;;;;5083966;28;20182;-73
2021/12/29 00:36:54;;;;;;;21.33;10.03;;;5.30;98.50;;;;;;5079094;28;20191;-73
2021/12/29 00:39:19;;;;;;;20.40;9.23;;;5.30;98.50;;;;;;5083586;28;20266;-75
2021/12/29 00:41:45;;;;;;;19.90;10.90;;;5.30;98.50;;;;;;5082380;28;20240;-75
2021/12/29 00:44:11;;;;;;;22.00;10.17;;;5.30;98.50;;;;;;5084988;28;20702;-75
2021/12/29 00:46:37;;;;;;;19.13;9.73;;;5.30;98.50;;;;;;5083408;28;20498;-75
2021/12/29 00:49:05;;;;;;;14.93;8.90;;;5.30;98.50;;;;;;5086087;28;20186;-75
2021/12/29 00:51:30;;;;;;;22.53;10.33;;;5.40;98.50;;;;;;5086110;28;20197;-75
2021/12/29 00:53:56;;;;;;;22.50;8.67;;;5.40;98.50;;;;;;5080375;28;20832;-74
2021/12/29 00:56:22;;;;;;;21.40;9.23;;;5.40;98.50;;;;;;5085079;28;20193;-74
2021/12/29 00:58:48;;;;;;;19.53;10.83;;;5.40;98.50;;;;;;5083670;28;20930;-73
2021/12/29 01:01:14;;;;;;;20.60;10.53;;;5.40;98.50;;;;;;5084903;28;20265;-74
2021/12/29 01:03:40;;;;;;;20.50;11.10;;;5.50;98.50;;;;;;5085761;28;20784;-74
2021/12/29 01:06:06;;;;;;;24.57;11.10;;;5.50;98.50;;;;;;5066891;28;20226;-73
2021/12/29 01:08:33;;;;;;;17.90;10.23;;;5.50;98.50;;;;;;5076947;28;20178;-74
2021/12/29 01:10:58;;;;;;;19.40;9.70;;;5.50;98.50;;;;;;5085604;28;20179;-74
2021/12/29 01:13:31;;;;;;;16.80;8.10;;;5.50;98.50;;;;;;5084035;28;20186;-75
2021/12/29 01:18:38;;;;;;;21.33;9.80;;;5.40;98.50;;;;;;5084808;28;20238;-74
2021/12/29 01:21:04;;;;;;;18.47;9.87;;;5.50;98.50;;;;;;5084099;28;21051;-74
2021/12/29 01:23:30;;;;;;;19.13;9.93;;;5.50;98.50;;;;;;5081811;28;20179;-74
2021/12/29 01:25:56;;;;;;;22.47;11.17;;;5.40;98.50;;;;;;5085809;28;20668;-74
2021/12/29 01:28:22;;;;;;;22.30;10.33;;;5.40;98.50;;;;;;5085501;28;20182;-74
2021/12/29 01:30:48;;;;;;;16.87;9.17;;;5.40;98.50;;;;;;5081815;28;20174;-74
2021/12/29 01:33:14;;;;;;;15.47;9.43;;;5.40;98.50;;;;;;5087001;28;20192;-74
2021/12/29 01:35:41;;;;;;;16.30;8.90;;;5.50;98.50;;;;;;5082917;28;20660;-74
2021/12/29 01:38:09;;;;;;;15.50;9.07;;;5.50;98.50;;;;;;5083508;28;20175;-74
2021/12/29 01:40:36;;;;;;;22.57;9.77;;;5.60;98.50;;;;;;5084223;28;20186;-74
2021/12/29 01:43:03;;;;;;;22.87;9.83;;;5.60;98.50;;;;;;5066612;28;20181;-74
2021/12/29 01:45:29;;;;;;;21.30;9.47;;;5.60;98.50;;;;;;5084591;28;20224;-74
2021/12/29 01:47:55;;;;;;;20.40;10.00;;;5.60;98.50;;;;;;5083989;28;20206;-75
2021/12/29 01:50:21;;;;;;;16.00;9.80;;;5.70;98.50;;;;;;5082687;28;20190;-75
2021/12/29 01:52:54;;;;;;;24.33;10.50;;;5.70;98.50;;;;;;5083629;28;20701;-75
2021/12/29 01:55:22;;;;;;;14.00;8.67;;;5.70;98.50;;;;;;5065848;28;20205;-75
2021/12/29 01:57:48;;;;;;;22.63;10.37;;;5.70;98.50;;;;;;5084339;28;20178;-75
2021/12/29 02:00:18;;;;;;;23.63;12.57;;;5.70;98.50;;;;;;5082726;28;20309;-75
2021/12/29 02:02:44;;;;;;;19.70;10.13;;;5.80;98.50;;;;;;5083959;28;20182;-75
2021/12/29 02:05:10;;;;;;;18.80;10.83;;;5.80;98.50;;;;;;5063484;28;20266;-75
2021/12/29 02:07:36;;;;;;;13.73;8.83;;;5.80;98.50;;;;;;5085201;28;20284;-75
2021/12/29 02:10:04;;;;;;;17.47;9.73;;;5.80;98.50;;;;;;5084159;28;20680;-75
2021/12/29 02:12:30;;;;;;;21.20;10.63;;;5.80;98.50;;;;;;5085342;28;20290;-74
2021/12/29 02:14:56;;;;;;;15.70;8.23;;;5.90;98.50;;;;;;5085400;28;20289;-74
2021/12/29 02:17:22;;;;;;;16.07;9.50;;;5.90;98.50;;;;;;5082676;28;20216;-74
2021/12/29 02:19:48;;;;;;;14.53;8.70;;;5.90;98.50;;;;;;5082671;28;20182;-74
2021/12/29 02:27:47;;;;;;;15.37;8.07;;;5.90;98.50;;;;;;5000565;28;20219;-74
2021/12/29 02:30:14;;;;;;;14.67;9.73;;;5.80;98.50;;;;;;5001930;28;20189;-74
2021/12/29 02:32:42;;;;;;;18.03;9.30;;;5.80;98.50;;;;;;5002404;28;20192;-73
2021/12/29 02:35:08;;;;;;;24.83;8.73;;;5.80;98.50;;;;;;5002289;28;20197;-74
2021/12/29 02:37:34;;;;;;;16.90;9.60;;;5.80;98.50;;;;;;5001673;28;20200;-74
2021/12/29 02:39:59;;;;;;;16.67;10.07;;;5.90;98.50;;;;;;5001554;28;20189;-74
2021/12/29 02:42:28;;;;;;;16.13;9.23;;;5.90;98.50;;;;;;5002706;28;20228;-75
2021/12/29 02:44:54;;;;;;;16.77;8.60;;;5.90;98.50;;;;;;5002071;28;20223;-74
2021/12/29 02:47:20;;;;;;;13.60;8.73;;;5.90;98.50;;;;;;5002192;28;20237;-74
2021/12/29 02:49:46;;;;;;;22.23;10.60;;;5.90;98.50;;;;;;5001804;28;20189;-74
2021/12/29 02:52:19;;;;;;;18.27;9.97;;;6.00;98.50;;;;;;4999777;28;20704;-73
2021/12/29 02:54:44;;;;;;;17.17;10.77;;;6.00;98.50;;;;;;5001625;28;20197;-74
2021/12/29 02:57:10;;;;;;;16.97;9.97;;;6.00;98.50;;;;;;5001498;28;20191;-74
2021/12/29 02:59:36;;;;;;;21.97;10.50;;;6.00;98.50;;;;;;5001684;28;20204;-74
2021/12/29 03:02:02;;;;;;;20.53;10.67;;;6.00;98.50;;;;;;5060124;28;20255;-74
2021/12/29 03:04:28;;;;;;;14.90;9.30;;;6.00;98.50;;;;;;5083477;28;20189;-74
2021/12/29 03:06:53;;;;;;;17.30;9.73;;;6.00;98.50;;;;;;5081868;28;20218;-73
2021/12/29 03:09:19;;;;;;;22.43;10.30;;;6.00;98.50;;;;;;5083427;28;20306;-74
2021/12/29 03:11:46;;;;;;;19.10;10.13;;;6.00;98.50;;;;;;5082095;28;20190;-74
2021/12/29 03:14:14;;;;;;;25.53;9.93;;;5.90;98.50;;;;;;5063363;28;20182;-73
2021/12/29 03:16:40;;;;;;;18.47;10.93;;;5.90;98.50;;;;;;5092064;28;20179;-74
2021/12/29 03:19:07;;;;;;;19.33;10.93;;;6.00;98.50;;;;;;5081919;28;20189;-75
2021/12/29 03:21:34;;;;;;;23.53;10.93;;;5.90;98.50;;;;;;5080476;28;20202;-75
2021/12/29 03:24:00;;;;;;;22.53;10.93;;;5.90;98.50;;;;;;5082485;28;20257;-74
2021/12/29 03:26:26;;;;;;;21.30;11.27;;;5.90;98.50;;;;;;5082435;28;20226;-75
2021/12/29 03:28:52;;;;;;;14.93;9.67;;;5.90;98.50;;;;;;5083175;28;20193;-74
2021/12/29 03:31:21;;;;;;;20.00;10.60;;;5.90;98.50;;;;;;5084650;28;20756;-75
2021/12/29 03:33:47;;;;;;;18.80;10.00;;;5.90;98.50;;;;;;5064666;28;20181;-75
2021/12/29 03:36:14;;;;;;;13.57;9.30;;;5.90;98.50;;;;;;5082516;28;20190;-75
2021/12/29 03:38:41;;;;;;;20.77;10.17;;;5.90;98.50;;;;;;5083698;28;20185;-75
2021/12/29 03:41:10;;;;;;;19.43;10.30;;;5.90;98.50;;;;;;5079728;28;20178;-75
2021/12/29 03:43:36;;;;;;;18.97;10.20;;;5.90;98.50;;;;;;5083035;28;20178;-75
2021/12/29 03:46:04;;;;;;;21.33;10.33;;;5.90;98.50;;;;;;5084075;28;20265;-75
2021/12/29 03:48:31;;;;;;;17.83;10.13;;;5.90;98.50;;;;;;5084907;28;20179;-75
2021/12/29 03:50:58;;;;;;;15.93;9.57;;;5.90;98.50;;;;;;5086211;28;20178;-75
2021/12/29 03:53:24;;;;;;;23.43;12.67;;;5.90;98.50;;;;;;5087972;28;20193;-76
2021/12/29 03:55:50;;;;;;;22.70;11.93;;;5.90;98.50;;;;;;5087608;28;20573;-75
2021/12/29 03:58:27;;;;;;;23.50;11.37;;;6.00;98.50;;;;;;5086442;28;20237;-75
2021/12/29 04:01:00;;;;;;;22.47;11.90;;;6.00;98.50;;;;;;5085554;28;20308;-76
2021/12/29 04:03:26;;;;;;;18.77;10.27;;;6.00;98.50;;;;;;5086595;28;20558;-75
2021/12/29 04:05:52;;;;;;;20.63;12.03;;;6.00;98.50;;;;;;5084978;28;20281;-75
2021/12/29 04:08:18;;;;;;;17.17;9.43;;;6.00;98.50;;;;;;5087308;28;20186;-75
2021/12/29 04:10:44;;;;;;;16.80;10.40;;;6.00;98.50;;;;;;5087392;28;21034;-75
2021/12/29 04:13:10;;;;;;;18.50;9.67;;;6.10;98.50;;;;;;5087341;28;20202;-74
2021/12/29 04:15:37;;;;;;;18.10;10.20;;;6.10;98.50;;;;;;5086831;28;20656;-73
2021/12/29 04:18:14;;;;;;;16.67;9.83;;;6.10;98.50;;;;;;5085752;28;20175;-74
2021/12/29 04:21:02;;;;;;;16.47;8.77;;;6.10;98.50;;;;;;5068504;28;20189;-74
2021/12/29 04:23:32;;;;;;;19.13;9.37;;;6.10;98.50;;;;;;5084639;28;20174;-74
2021/12/29 04:26:01;;;;;;;19.53;10.20;;;6.10;98.50;;;;;;5086373;28;20178;-74
2021/12/29 04:28:27;;;;;;;20.27;10.00;;;6.10;98.50;;;;;;5067203;28;20186;-74
2021/12/29 04:30:59;;;;;;;17.87;9.33;;;6.10;98.40;;;;;;5086981;28;20279;-74
2021/12/29 04:33:26;;;;;;;16.30;8.93;;;6.10;98.50;;;;;;5085603;28;20188;-73
2021/12/29 04:35:52;;;;;;;18.17;10.10;;;6.10;98.50;;;;;;5087194;28;20185;-73
2021/12/29 04:38:18;;;;;;;19.83;10.60;;;6.10;98.40;;;;;;5082723;28;20178;-73
2021/12/29 04:40:44;;;;;;;18.57;9.33;;;6.10;98.40;;;;;;5087204;28;20196;-73
2021/12/29 04:43:10;;;;;;;15.83;9.10;;;6.10;98.50;;;;;;5083469;28;20167;-73
2021/12/29 04:45:36;;;;;;;19.20;9.93;;;6.10;98.50;;;;;;5086494;28;20197;-74
2021/12/29 04:48:02;;;;;;;13.97;8.77;;;6.10;98.50;;;;;;5086018;28;20210;-73
2021/12/29 04:50:35;;;;;;;15.43;8.50;;;6.10;98.50;;;;;;5086034;28;20197;-72
2021/12/29 04:53:02;;;;;;;14.10;9.13;;;6.10;98.50;;;;;;5065791;28;20584;-73
2021/12/29 04:55:29;;;;;;;13.97;9.17;;;6.10;98.50;;;;;;5084927;28;20189;-73
2021/12/29 04:57:57;;;;;;;16.80;8.67;;;6.10;98.50;;;;;;5080287;28;20690;-73
2021/12/29 05:00:24;;;;;;;13.67;9.23;;;6.10;98.50;;;;;;5083538;28;20185;-73
2021/12/29 05:02:51;;;;;;;18.97;9.43;;;6.20;98.50;;;;;;5084990;28;20179;-74
2021/12/29 05:10:32;;;;;;;12.73;7.97;;;6.20;98.50;;;;;;5086741;28;20197;-73
2021/12/29 05:12:58;;;;;;;13.60;7.90;;;6.30;98.50;;;;;;5084404;28;20257;-74
2021/12/29 05:15:23;;;;;;;18.20;8.57;;;6.30;98.50;;;;;;5084413;28;20262;-74
2021/12/29 05:17:49;;;;;;;17.47;8.27;;;6.30;98.40;;;;;;5085107;28;20638;-73
2021/12/29 05:20:15;;;;;;;10.63;7.23;;;6.40;98.40;;;;;;5085449;28;20244;-74
2021/12/29 05:22:41;;;;;;;14.93;8.67;;;6.40;98.30;;;;;;5085829;28;20265;-74
2021/12/29 05:25:07;;;;;;;14.20;8.70;;;6.40;98.20;;;;;;5085673;28;20228;-73
2021/12/29 05:27:32;;;;;;;13.83;8.47;;;6.40;98.20;;;;;;5086455;28;20764;-74
2021/12/29 05:30:02;;;;;;;15.83;9.47;;;6.40;98.20;;;;;;5087226;28;20235;-74
2021/12/29 05:32:30;;;;;;;18.10;9.43;;;6.40;98.20;;;;;;5086846;28;20174;-74
2021/12/29 05:34:56;;;;;;;19.67;9.33;;;6.40;98.20;;;;;;5066539;28;20418;-73
2021/12/29 05:37:22;;;;;;;15.50;8.50;;;6.40;98.30;;;;;;5086404;28;20198;-75
2021/12/29 05:39:48;;;;;;;12.27;7.70;;;6.40;98.30;;;;;;5083583;28;20182;-74
2021/12/29 05:42:13;;;;;;;16.27;9.10;;;6.40;98.30;;;;;;5081640;28;20178;-73
2021/12/29 05:44:39;;;;;;;19.93;8.63;;;6.50;98.30;;;;;;5085018;28;20189;-74
2021/12/29 05:47:05;;;;;;;13.33;8.03;;;6.50;98.30;;;;;;5085558;28;20214;-73
2021/12/29 05:49:31;;;;;;;11.83;8.10;;;6.60;98.20;;;;;;5082974;28;20271;-71
2021/12/29 05:51:56;;;;;;;15.97;7.63;;;6.60;98.10;;;;;;5083904;28;20203;-72
2021/12/29 05:54:22;;;;;;;11.77;7.97;;;6.60;98.00;;;;;;5082645;28;20947;-72
2021/12/29 05:56:48;;;;;;;12.87;8.07;;;6.70;97.90;;;;;;5084794;28;20182;-71
2021/12/29 05:59:14;;;;;;;16.10;9.20;;;6.70;97.80;;;;;;5081764;28;20235;-73
2021/12/29 06:01:42;;;;;;;19.73;8.70;;;6.70;97.60;;;;;;5081289;28;20170;-72
2021/12/29 06:04:08;;;;;;;16.57;8.37;;;6.70;97.50;;;;;;5082752;28;20239;-74
2021/12/29 06:06:34;;;;;;;17.17;8.13;;;6.70;97.50;;;;;;5082482;28;20213;-74
2021/12/29 06:09:00;;;;;;;15.73;8.40;;;6.70;97.50;;;;;;5081209;28;20214;-77
2021/12/29 06:11:26;;;;;;;15.83;8.23;;;6.70;97.40;;;;;;5096154;28;20177;-77
2021/12/29 06:13:52;;;;;;;17.17;7.80;;;6.70;97.40;;;;;;5091235;28;20290;-73
2021/12/29 06:16:18;;;;;;;18.37;7.50;;;6.70;97.50;;;;;;5084742;28;20191;-73
2021/12/29 06:18:44;;;;;;;10.37;7.37;;;6.70;97.50;;;;;;5082435;28;20243;-73
2021/12/29 06:21:16;;;;;;;17.20;8.50;;;6.70;97.50;;;;;;5085615;28;20174;-73
2021/12/29 06:23:45;;;;;;;18.80;9.77;;;6.70;97.10;;;;;;5082334;28;20947;-74
2021/12/29 06:26:11;;;;;;;17.47;9.93;;;6.70;97.30;;;;;;5081397;28;20218;-73
2021/12/29 06:28:37;;;;;;;11.07;7.90;;;6.70;97.40;;;;;;5083817;28;20182;-73
2021/12/29 06:31:03;;;;;;;13.43;8.30;;;6.70;97.50;;;;;;5070200;28;20181;-76
2021/12/29 06:33:29;;;;;;;15.37;8.77;;;6.70;97.60;;;;;;5100706;28;20194;-76
2021/12/29 06:35:54;;;;;;;16.17;8.40;;;6.70;97.80;;;;;;5087946;28;20182;-74
2021/12/29 06:38:20;;;;;;;12.10;7.43;;;;;;;;;;5083472;28;20178;-75
2021/12/29 06:40:47;;;;;;;17.13;7.40;;;6.80;97.90;;;;;;5083874;28;20275;-74
2021/12/29 06:43:13;;;;;;;13.07;7.63;;;6.90;97.90;;;;;;5062519;28;20174;-74
2021/12/29 06:45:39;;;;;;;14.00;8.03;;;6.90;97.70;;;;;;5083565;28;20183;-72
2021/12/29 06:48:05;;;;;;;14.17;8.47;;;7.00;97.70;;;;;;5083300;28;20210;-72
2021/12/29 06:50:32;;;;;;;16.43;9.40;;;7.00;97.80;;;;;;5080647;28;20186;-72
2021/12/29 06:52:57;;;;;;;16.23;8.73;;;7.00;97.70;;;;;;5080791;28;20178;-72
2021/12/29 06:55:23;;;;;;;14.83;8.63;;;7.10;97.60;;;;;;5081461;28;20186;-74
2021/12/29 06:57:49;;;;;;;17.47;8.10;;;7.10;97.50;;;;;;5082081;28;20265;-71
2021/12/29 07:00:15;;;;;;;16.80;7.83;;;7.20;97.50;;;;;;5083292;28;20190;-73
2021/12/29 07:02:41;;;;;;;12.70;7.37;;;7.20;97.50;;;;;;5081696;28;20205;-73
2021/12/29 07:05:07;;;;;;;13.03;7.80;;;7.30;97.40;;;;;;5081044;28;20249;-71
2021/12/29 07:07:33;;;;;;;22.67;10.90;;;7.30;97.30;;;;;;5080847;28;20955;-71
2021/12/29 07:09:59;;;;;;;17.10;8.87;;;7.40;97.20;;;;;;5083937;28;20178;-71
2021/12/29 07:12:25;;;;;;;15.50;8.47;;;7.40;97.10;;;;;;5084735;28;20182;-71
2021/12/29 07:14:51;;;;;;;16.57;8.83;;;7.40;97.10;;;;;;5083850;28;20185;-72
2021/12/29 07:17:16;;;;;;;20.80;10.13;;;7.30;97.00;;;;;;5084550;28;20186;-71
2021/12/29 07:19:42;;;;;;;15.20;8.93;;;7.30;97.00;;;;;;5084459;28;20182;-71
2021/12/29 07:22:08;;;;;;;17.73;9.30;;;7.30;97.00;;;;;;5084003;28;20261;-71
2021/12/29 07:24:34;;;;;;;16.40;9.17;;;7.20;97.10;;;;;;5088462;28;20177;-71
2021/12/29 07:27:00;;;;;;;17.53;10.33;;;7.20;97.20;;;;;;5087539;28;20231;-72
2021/12/29 07:29:27;;;;;;;24.90;10.13;;;7.10;97.30;;;;;;5087654;28;20186;-71
2021/12/29 07:31:53;;;;;;;22.37;9.97;;;7.10;97.60;;;;;;5088587;28;20185;-71
2021/12/29 07:34:22;;;;;;;18.53;9.73;;;7.10;97.60;;;;;;5068375;28;20178;-71
2021/12/29 07:36:48;;;;;;;20.33;10.30;;;7.10;97.60;;;;;;5069362;28;20178;-70
2021/12/29 07:39:14;;;;;;;25.07;12.23;;;7.10;97.80;;;;;;5088171;28;20267;-71
2021/12/29 07:41:41;;;;;;;28.23;13.87;;;7.10;98.20;;;;;;5084915;28;20216;-70
2021/12/29 07:44:12;;;;;;;37.90;15.87;;;7.10;98.40;;;;;;5087746;28;20178;-71
2021/12/29 07:46:38;;;;;;;25.27;13.50;;;7.10;98.50;;;;;;5069250;28;20198;-71
2021/12/29 07:49:04;;;;;;;36.23;15.70;;;7.00;98.50;;;;;;5086582;28;20186;-71
2021/12/29 07:51:30;;;;;;;26.77;14.50;;;7.10;98.50;;;;;;5088184;28;20187;-71
2021/12/29 07:53:57;;;;;;;23.90;13.27;;;7.10;98.50;;;;;;5086479;28;20178;-70
2021/12/29 07:56:23;;;;;;;33.07;14.53;;;7.10;98.50;;;;;;5087676;28;21513;-72
2021/12/29 07:58:49;;;;;;;31.93;15.00;;;7.10;98.50;;;;;;5087541;28;20243;-73
2021/12/29 08:01:15;;;;;;;30.77;13.37;;;7.10;98.50;;;;;;5087879;28;20687;-72
2021/12/29 08:03:41;;;;;;;23.63;12.40;;;7.10;98.50;;;;;;5087879;28;20181;-72
2021/12/29 08:06:07;;;;;;;20.03;11.07;;;7.20;98.50;;;;;;5087841;28;20711;-72
2021/12/29 08:08:33;;;;;;;26.07;11.93;;;7.20;98.50;;;;;;5087508;28;20217;-72
2021/12/29 08:10:59;;;;;;;20.43;10.27;;;7.30;98.50;;;;;;5088238;28;20198;-71
2021/12/29 08:13:25;;;;;;;22.50;11.70;;;7.30;98.50;;;;;;5086768;28;20220;-71
2021/12/29 08:15:50;;;;;;;21.83;10.80;;;7.40;98.50;;;;;;5087896;28;20652;-70
2021/12/29 08:18:16;;;;;;;20.60;11.03;;;7.40;98.50;;;;;;5085870;28;20272;-70
2021/12/29 08:20:42;;;;;;;18.73;9.60;;;7.50;98.50;;;;;;5085125;28;20255;-70
2021/12/29 08:23:10;;;;;;;24.43;10.83;;;7.50;98.50;;;;;;5086419;28;20231;-72
2021/12/29 08:25:37;;;;;;;19.67;10.90;;;7.60;98.40;;;;;;5087414;28;20214;-72
2021/12/29 08:28:04;;;;;;;20.37;10.40;;;7.70;98.30;;;;;;5085262;28;20214;-71
2021/12/29 08:30:33;;;;;;;21.10;10.77;;;7.70;98.30;;;;;;5087160;28;20205;-71
2021/12/29 08:32:59;;;;;;;17.37;10.73;;;7.80;98.20;;;;;;5086630;28;20186;-71
2021/12/29 08:35:27;;;;;;;18.93;11.23;;;7.80;98.00;;;;;;5086159;28;20760;-72
2021/12/29 08:37:54;;;;;;;25.17;11.60;;;7.90;98.00;;;;;;5086553;28;20186;-73
2021/12/29 08:40:20;;;;;;;19.17;11.40;;;7.90;97.90;;;;;;5087330;28;20277;-72
2021/12/29 08:42:47;;;;;;;30.83;12.60;;;7.90;97.80;;;;;;5085247;28;20190;-72
2021/12/29 08:45:15;;;;;;;19.33;10.53;;;8.00;97.70;;;;;;5067919;28;20201;-71
2021/12/29 08:47:42;;;;;;;18.57;11.90;;;8.00;97.70;;;;;;5087183;28;20275;-73
2021/12/29 08:50:11;;;;;;;22.57;11.50;;;8.00;97.70;;;;;;5086848;28;20573;-72
2021/12/29 08:52:38;;;;;;;19.40;11.07;;;8.10;97.50;;;;;;5086238;28;20212;-72
2021/12/29 08:55:05;;;;;;;23.17;11.10;;;8.10;97.50;;;;;;5084771;28;20171;-72
2021/12/29 08:57:30;;;;;;;20.97;10.53;;;8.10;97.50;;;;;;5065881;28;20189;-72
2021/12/29 08:59:56;;;;;;;23.53;10.57;;;8.20;97.50;;;;;;5086795;28;21027;-72
2021/12/29 09:02:24;;;;;;;24.10;11.97;;;8.20;97.70;;;;;;5084709;28;20197;-72
2021/12/29 09:04:49;;;;;;;22.20;12.40;;;8.20;97.50;;;;;;5085843;28;20269;-72
2021/12/29 09:07:15;;;;;;;17.87;9.80;;;8.20;97.70;;;;;;5086477;28;20772;-72
2021/12/29 09:09:41;;;;;;;22.05;11.18;;;8.30;97.60;;;;;;5086704;28;20183;-70
2021/12/29 09:12:07;;;;;;;20.30;11.50;;;8.30;97.60;;;;;;5085901;28;21033;-71
2021/12/29 09:14:32;;;;;;;18.53;11.40;;;8.30;97.50;;;;;;5086300;28;20210;-72
2021/12/29 09:16:58;;;;;;;20.10;10.67;;;8.30;97.50;;;;;;5085800;28;20209;-73
2021/12/29 09:19:25;;;;;;;20.90;11.10;;;8.40;97.60;;;;;;5086058;28;20182;-72
2021/12/29 09:21:52;;;;;;;22.80;11.07;;;8.40;97.60;;;;;;5068532;28;20189;-72
2021/12/29 09:24:18;;;;;;;21.70;11.33;;;8.50;97.50;;;;;;5086175;28;20573;-73
2021/12/29 09:26:44;;;;;;;23.35;11.93;;;8.50;97.60;;;;;;5084631;28;20247;-72
2021/12/29 09:29:09;;;;;;;22.17;11.20;;;8.60;97.40;;;;;;5085811;28;20234;-72
2021/12/29 09:31:35;;;;;;;24.23;10.77;;;8.60;97.20;;;;;;5086331;28;20198;-72
2021/12/29 09:34:01;;;;;;;20.73;10.00;;;8.70;97.10;;;;;;5067147;28;20571;-72
2021/12/29 09:36:27;;;;;;;22.67;11.30;;;8.80;97.30;;;;;;5085391;28;20628;-73
2021/12/29 09:38:52;;;;;;;21.40;10.55;;;8.80;97.20;;;;;;5085597;28;20721;-71
2021/12/29 09:41:18;;;;;;;20.65;11.77;;;8.90;97.20;;;;;;5084163;28;20189;-71
2021/12/29 09:43:46;;;;;;;19.85;12.23;;;9.00;97.30;;;;;;5086189;28;20188;-72
2021/12/29 09:46:12;;;;;;;24.55;12.32;;;9.00;97.20;;;;;;5084494;28;20698;-72
2021/12/29 09:48:38;;;;;;;16.00;9.65;;;9.10;97.10;;;;;;5086432;28;20170;-72
2021/12/29 09:51:06;;;;;;;19.52;10.02;;;9.10;96.70;;;;;;5084872;28;20187;-72
2021/12/29 09:53:32;;;;;;;20.48;9.75;;;9.20;96.50;;;;;;5085297;28;20271;-71
2021/12/29 09:55:58;;;;;;;21.08;11.60;;;9.20;96.70;;;;;;5084759;28;20803;-71
2021/12/29 09:58:24;;;;;;;19.83;11.23;;;9.30;96.80;;;;;;5084875;28;20182;-72
2021/12/29 10:00:56;;;;;;;15.93;10.88;;;9.40;96.80;;;;;;5084724;28;20560;-72
2021/12/29 10:03:24;;;;;;;20.20;10.15;;;9.50;96.80;;;;;;5084769;28;20686;-71
2021/12/29 10:05:53;;;;;;;17.63;10.65;;;9.50;96.80;;;;;;5083769;28;20286;-72
2021/12/29 10:08:26;;;;;;;13.38;9.38;;;9.60;96.60;;;;;;5082943;28;20221;-72
2021/12/29 10:11:01;;;;;;;18.92;8.95;;;9.70;96.50;;;;;;5082342;28;20219;-73
2021/12/29 10:13:33;;;;;;;13.13;8.32;;;9.80;96.30;;;;;;5082543;28;20178;-72
2021/12/29 10:16:04;;;;;;;17.00;8.38;;;9.80;96.10;;;;;;5084599;28;20197;-72
2021/12/29 10:18:32;;;;;;;12.25;8.40;;;9.80;96.10;;;;;;5084053;28;20190;-71
2021/12/29 10:21:04;;;;;;;12.85;7.20;;;9.90;96.10;;;;;;5083012;28;20274;-71
2021/12/29 10:23:36;;;;;;;13.30;7.75;;;9.90;95.90;;;;;;5084115;28;20667;-72
2021/12/29 10:26:09;;;;;;;18.90;7.47;;;10.00;95.90;;;;;;5084533;28;20186;-71
2021/12/29 10:28:36;;;;;;;11.18;7.22;;;10.00;95.90;;;;;;5085006;28;20186;-71
2021/12/29 10:31:11;;;;;;;11.90;8.02;;;10.00;95.70;;;;;;5083298;28;20213;-71
2021/12/29 10:33:46;;;;;;;12.38;8.20;;;10.10;95.50;;;;;;5083996;28;20184;-72
2021/12/29 10:36:12;;;;;;;12.57;7.70;;;10.10;95.40;;;;;;5082685;28;20651;-70
2021/12/29 10:38:38;;;;;;;16.85;7.75;;;10.10;95.40;;;;;;5082818;28;20204;-71
2021/12/29 10:41:04;;;;;;;11.57;7.53;;;10.10;95.30;;;;;;5082108;28;20206;-71
2021/12/29 10:43:30;;;;;;;15.20;8.43;;;10.10;95.10;;;;;;5082579;28;20178;-71
2021/12/29 10:45:58;;;;;;;14.18;7.72;;;10.10;95.10;;;;;;5081993;28;20225;-71
2021/12/29 10:48:27;;;;;;;10.95;7.47;;;10.20;95.10;;;;;;5082915;28;20222;-71
2021/12/29 10:51:06;;;;;;;10.70;6.90;;;10.20;94.90;;;;;;5062010;28;20187;-71
2021/12/29 10:53:37;;;;;;;15.43;7.90;;;10.20;94.90;;;;;;5079167;28;20187;-72
2021/12/29 10:56:05;;;;;;;9.30;6.78;;;10.20;94.70;;;;;;5081079;28;20696;-73
2021/12/29 10:58:34;;;;;;;9.95;7.90;;;10.20;94.70;;;;;;5080711;28;20173;-72
2021/12/29 11:01:02;;;;;;;12.90;8.43;;;10.20;94.60;;;;;;5084973;28;20178;-74
2021/12/29 11:03:30;;;;;;;11.73;7.35;;;10.20;94.90;;;;;;5083663;28;20193;-73
2021/12/29 11:05:58;;;;;;;15.13;7.93;;;10.10;94.90;;;;;;5083975;28;20194;-73
2021/12/29 11:08:27;;;;;;;10.05;7.70;;;10.10;94.90;;;;;;5081352;28;20231;-71
2021/12/29 11:10:56;;;;;;;11.60;7.70;;;10.10;94.90;;;;;;5082659;28;20198;-74
2021/12/29 11:13:27;;;;;;;17.00;8.93;;;10.10;94.90;;;;;;5081564;28;20268;-74
2021/12/29 11:15:55;;;;;;;15.27;8.95;;;10.10;94.70;;;;;;5080230;28;20189;-74
2021/12/29 11:18:20;;;;;;;13.23;7.78;;;10.00;94.80;;;;;;5082220;28;20272;-76
2021/12/29 11:20:55;;;;;;;18.58;9.43;;;10.00;95.00;;;;;;5082582;28;20339;-74
2021/12/29 11:23:22;;;;;;;15.18;7.70;;;9.90;95.10;;;;;;5079927;28;20186;-75
2021/12/29 11:25:50;;;;;;;14.90;8.10;;;9.90;95.40;;;;;;5081832;28;20663;-74
2021/12/29 11:28:28;;;;;;;14.85;8.45;;;9.80;95.40;;;;;;5082015;28;20210;-74
2021/12/29 11:30:55;;;;;;;15.80;9.20;;;9.80;95.30;;;;;;5082328;28;20792;-75
2021/12/29 11:33:21;;;;;;;9.40;7.18;;;9.90;95.40;;;;;;5084235;28;20186;-75
2021/12/29 11:35:53;;;;;;;12.77;7.30;;;9.90;95.50;;;;;;5081867;28;20189;-76
2021/12/29 11:38:22;;;;;;;14.65;8.32;;;9.90;95.30;;;;;;5065848;28;20942;-73
2021/12/29 11:40:51;;;;;;;15.73;8.85;;;9.90;95.30;;;;;;5059259;28;20190;-75
2021/12/29 11:43:18;;;;;;;17.35;9.70;;;9.90;95.40;;;;;;5076924;28;20178;-74
2021/12/29 11:45:48;;;;;;;21.35;12.40;;;9.90;95.30;;;;;;5061557;28;20183;-76
2021/12/29 11:48:14;;;;;;;24.70;14.25;;;9.90;95.00;;;;;;5063750;28;20305;-75
2021/12/29 11:50:46;;;;;;;36.67;16.65;;;10.00;94.90;;;;;;5080458;28;20182;-75
2021/12/29 11:53:30;;;;;;;31.27;16.38;;;10.00;94.90;;;;;;5079718;28;20962;-75
2021/12/29 11:56:05;;;;;;;33.10;16.38;;;10.00;94.80;;;;;;5082754;28;20187;-74
2021/12/29 11:58:41;;;;;;;32.35;15.68;;;10.00;94.80;;;;;;5057402;28;20909;-75
2021/12/29 12:01:23;;;;;;;32.97;16.45;;;10.00;94.80;;;;;;5080102;28;20174;-74
2021/12/29 12:03:53;;;;;;;32.25;15.40;;;10.00;94.70;;;;;;5077996;28;20178;-75
2021/12/29 12:06:29;;;;;;;35.78;15.07;;;10.00;94.80;;;;;;5079344;28;20224;-74
2021/12/29 12:09:17;;;;;;;27.90;15.27;;;10.00;94.90;;;;;;5060576;28;20189;-74
2021/12/29 12:11:49;;;;;;;24.38;12.90;;;10.00;94.80;;;;;;5084252;28;20209;-73
2021/12/29 12:14:20;;;;;;;28.52;14.32;;;10.00;94.70;;;;;;5081127;28;20182;-74
2021/12/29 12:16:50;;;;;;;27.67;14.88;;;9.90;94.40;;;;;;5082239;28;20254;-74
2021/12/29 12:19:21;;;;;;;30.27;14.75;;;9.90;94.60;;;;;;5082397;28;20185;-75
2021/12/29 12:21:49;;;;;;;25.45;14.85;;;9.90;94.80;;;;;;5084854;28;20189;-74
2021/12/29 12:24:20;;;;;;;26.02;14.40;;;9.90;94.70;;;;;;5082511;28;20234;-74
2021/12/29 12:27:02;;;;;;;30.70;14.50;;;9.90;94.80;;;;;;5080596;28;20262;-74
2021/12/29 12:29:32;;;;;;;25.58;14.43;;;9.90;95.00;;;;;;5081488;28;20182;-74
2021/12/29 12:32:09;;;;;;;27.27;15.38;;;9.90;94.90;;;;;;5084277;28;20206;-74
2021/12/29 12:34:55;;;;;;;31.02;15.55;;;9.90;94.80;;;;;;5065354;28;20640;-74
2021/12/29 12:37:31;;;;;;;29.80;15.13;;;9.90;94.60;;;;;;5087447;28;20182;-74
2021/12/29 12:40:20;;;;;;;33.22;16.23;;;9.90;94.70;;;;;;5083862;28;20180;-74
2021/12/29 12:43:12;;;;;;;30.73;15.20;;;9.90;94.80;;;;;;5080193;28;20531;-74
2021/12/29 12:45:57;;;;;;;30.15;15.75;;;9.90;94.70;;;;;;5061189;28;20190;-75
2021/12/29 12:48:31;;;;;;;25.98;14.38;;;9.90;94.70;;;;;;5080455;28;20673;-75
2021/12/29 12:51:02;;;;;;;22.70;13.45;;;10.00;95.00;;;;;;5083893;28;20235;-75
2021/12/29 12:53:41;;;;;;;26.90;14.95;;;10.10;95.20;;;;;;5081854;28;20276;-75
2021/12/29 12:56:12;;;;;;;25.05;14.88;;;10.20;95.00;;;;;;5064506;28;20659;-75